createdAt,value
2022-08-03T01:59:18.695Z,15.49
2022-08-03T02:04:17.642Z,15.48
2022-08-03T02:09:17.346Z,15.59
2022-08-03T02:14:17.221Z,15.24
2022-08-03T02:19:17.268Z,15.23
2022-08-03T02:24:17.099Z,15.19
2022-08-03T02:29:17.058Z,15.17
2022-08-03T02:34:16.990Z,15.20
2022-08-03T02:39:16.948Z,15.23
2022-08-03T02:44:16.836Z,15.27
2022-08-03T02:49:42.709Z,15.35
2022-08-03T02:54:17.717Z,15.39
2022-08-03T02:59:16.753Z,15.21
2022-08-03T03:04:16.602Z,14.88
2022-08-03T03:09:18.023Z,14.91
2022-08-03T03:14:16.455Z,15.03
2022-08-03T03:19:17.663Z,15.02
2022-08-03T03:24:16.370Z,15.11
2022-08-03T03:29:16.255Z,15.06
2022-08-03T03:34:16.408Z,15.03
2022-08-03T03:39:16.278Z,14.78
2022-08-03T03:44:16.254Z,14.74
2022-08-03T03:49:19.062Z,14.75
2022-08-03T03:54:15.935Z,14.99
2022-08-03T03:59:15.861Z,15.09
2022-08-03T04:04:15.775Z,15.15
2022-08-03T04:09:15.789Z,15.88
2022-08-03T04:14:15.949Z,16.48
2022-08-03T04:19:22.923Z,17.04
2022-08-03T04:24:16.545Z,17.35
2022-08-03T04:29:15.495Z,17.82
2022-08-03T04:34:15.420Z,18.22
2022-08-03T04:39:15.650Z,18.73
2022-08-03T04:44:15.245Z,20.00
2022-08-03T04:49:18.626Z,21.26
2022-08-03T04:54:15.168Z,21.92
2022-08-03T04:59:15.598Z,22.39
2022-08-03T05:04:15.073Z,23.19
2022-08-03T05:09:14.997Z,23.80
2022-08-03T05:14:15.889Z,24.13
2022-08-03T05:19:14.918Z,24.39
2022-08-03T05:24:17.618Z,24.50
2022-08-03T05:29:14.653Z,24.50
2022-08-03T05:34:14.934Z,24.73
2022-08-03T05:39:14.638Z,25.00
2022-08-03T05:44:14.608Z,24.77
2022-08-03T05:49:17.585Z,25.37
2022-08-03T05:54:22.269Z,26.49
2022-08-03T05:59:36.907Z,27.57
2022-08-03T06:04:15.271Z,27.46
2022-08-03T06:09:14.139Z,27.62
2022-08-03T06:14:14.618Z,27.33
2022-08-03T06:19:14.189Z,27.36
2022-08-03T06:24:13.982Z,27.10
2022-08-03T06:29:23.253Z,28.01
2022-08-03T06:34:33.671Z,27.88
2022-08-03T06:39:14.854Z,28.58
2022-08-03T06:44:13.815Z,28.90
2022-08-03T06:49:17.219Z,28.93
2022-08-03T06:55:31.332Z,28.80
2022-08-03T07:00:31.133Z,29.16
2022-08-03T07:05:31.223Z,29.44
2022-08-03T07:10:30.993Z,28.35
2022-08-03T07:15:53.754Z,27.71
2022-08-03T07:20:32.723Z,29.11
2022-08-03T07:25:30.770Z,28.75
2022-08-03T07:30:33.813Z,28.17
2022-08-03T07:35:30.731Z,28.66
2022-08-03T07:40:31.840Z,28.78
2022-08-03T07:45:33.643Z,29.00
2022-08-03T07:50:30.537Z,28.82
2022-08-03T08:06:26.817Z,30.14
2022-08-03T08:11:06.039Z,30.05
2022-08-03T08:16:05.757Z,30.38
2022-08-03T08:21:05.671Z,29.71
2022-08-03T08:26:05.699Z,30.16
2022-08-03T08:31:05.570Z,29.90
2022-08-03T08:36:08.367Z,30.34
2022-08-03T08:41:05.743Z,30.30
2022-08-03T08:46:05.521Z,30.07
2022-08-03T08:51:13.261Z,29.13
2022-08-03T08:56:16.030Z,29.28
2022-08-03T09:01:05.339Z,28.88
2022-08-03T09:06:05.243Z,29.25
2022-08-03T09:11:05.067Z,29.50
2022-08-03T09:16:05.113Z,29.65
2022-08-03T09:21:24.256Z,29.84
2022-08-03T09:26:05.957Z,29.74
2022-08-03T09:31:04.880Z,29.84
2022-08-03T09:36:05.099Z,29.60
2022-08-03T09:41:05.116Z,29.62
2022-08-03T09:46:07.124Z,29.62
2022-08-03T09:51:14.242Z,30.03
2022-08-03T09:56:36.361Z,30.18
2022-08-03T10:01:05.743Z,30.30
2022-08-03T10:06:04.665Z,30.47
2022-08-03T10:11:04.317Z,30.54
2022-08-03T10:16:23.611Z,30.53
2022-08-03T10:21:05.286Z,30.52
2022-08-03T10:26:04.167Z,30.74
2022-08-03T10:31:04.105Z,30.72
2022-08-03T10:36:03.985Z,30.87
2022-08-03T10:41:03.965Z,30.94
2022-08-03T10:46:03.956Z,31.18
2022-08-03T10:51:05.471Z,31.23
2022-08-03T10:56:06.768Z,31.24
2022-08-03T11:01:03.737Z,31.09
2022-08-03T11:06:11.436Z,31.24
2022-08-03T11:11:11.088Z,31.53
2022-08-03T11:16:18.298Z,31.80
2022-08-03T11:22:15.048Z,31.91
2022-08-03T11:27:15.215Z,31.99
2022-08-03T11:32:19.409Z,32.33
2022-08-03T11:37:14.866Z,32.37
2022-08-03T11:42:14.851Z,32.21
2022-08-03T11:47:14.696Z,32.24
2022-08-03T11:52:16.240Z,32.32
2022-08-03T11:57:14.648Z,32.32
2022-08-03T12:02:14.787Z,32.42
2022-08-03T12:07:24.399Z,32.54
2022-08-03T12:12:18.475Z,32.55
2022-08-03T12:17:14.283Z,32.58
2022-08-03T12:22:14.278Z,32.76
2022-08-03T12:27:14.158Z,32.95
2022-08-03T12:32:14.206Z,32.74
2022-08-03T12:37:28.999Z,32.98
2022-08-03T12:42:15.165Z,33.06
2022-08-03T12:47:14.351Z,33.30
2022-08-03T12:52:13.914Z,33.42
2022-08-03T12:57:15.924Z,33.71
2022-08-03T13:02:15.508Z,33.85
2022-08-03T13:07:17.993Z,33.83
2022-08-03T13:12:16.973Z,33.76
2022-08-03T13:17:13.965Z,33.87
2022-08-03T13:22:13.523Z,33.97
2022-08-03T13:28:01.270Z,34.09
2022-08-03T13:32:14.526Z,34.20
2022-08-03T13:37:13.447Z,34.13
2022-08-03T13:42:13.252Z,34.04
2022-08-03T13:47:13.408Z,33.89
2022-08-03T13:52:13.125Z,33.94
2022-08-03T13:58:03.026Z,34.05
2022-08-03T14:02:14.205Z,34.13
2022-08-03T14:07:13.043Z,34.02
2022-08-03T14:12:18.021Z,34.16
2022-08-03T14:17:12.760Z,34.41
2022-08-03T14:47:06.154Z,36.41
2022-08-03T14:52:06.051Z,36.26
2022-08-03T14:57:06.064Z,36.07
2022-08-03T15:02:08.839Z,36.29
2022-08-03T15:07:08.038Z,37.48
2022-08-03T15:12:05.882Z,37.90
2022-08-03T15:17:07.048Z,37.80
2022-08-03T15:22:05.712Z,38.15
2022-08-03T15:27:06.218Z,38.46
2022-08-03T15:32:09.218Z,38.41
2022-08-03T15:37:15.067Z,38.38
2022-08-03T15:42:06.489Z,37.09
2022-08-03T15:47:05.503Z,37.09
2022-08-03T15:52:05.315Z,36.21
2022-08-03T15:57:05.314Z,34.89
2022-08-03T16:02:05.284Z,34.73
2022-08-03T16:07:05.134Z,34.56
2022-08-03T16:12:05.104Z,34.26
2022-08-03T16:17:06.136Z,34.02
2022-08-03T16:22:05.367Z,34.07
2022-08-03T16:27:05.802Z,34.04
2022-08-03T16:32:09.026Z,34.01
2022-08-03T16:37:35.725Z,33.90
2022-08-03T16:42:05.869Z,33.73
2022-08-03T16:47:04.631Z,33.64
2022-08-03T16:52:04.592Z,33.55
2022-08-03T19:30:03.714Z,26.15
2022-08-03T19:34:59.468Z,26.12
2022-08-03T19:39:59.502Z,26.11
2022-08-03T19:44:58.942Z,26.06
2022-08-03T19:50:10.319Z,25.75
2022-08-03T19:54:59.884Z,25.35
2022-08-03T19:59:58.976Z,25.28
2022-08-03T20:04:59.981Z,24.95
2022-08-03T20:09:58.559Z,24.67
2022-08-03T20:14:58.544Z,24.39
2022-08-03T20:20:01.483Z,24.27
2022-08-03T20:24:58.354Z,24.00
2022-08-03T20:30:06.689Z,23.76
2022-08-03T20:35:01.423Z,23.64
2022-08-03T20:39:58.452Z,23.45
2022-08-03T20:45:06.078Z,23.43
2022-08-03T20:49:59.044Z,23.58
2022-08-03T20:54:58.053Z,23.34
2022-08-03T20:59:57.972Z,23.11
2022-08-03T21:04:57.923Z,22.84
2022-08-03T21:09:58.100Z,22.97
2022-08-03T21:14:57.782Z,22.75
2022-08-03T21:20:00.726Z,22.64
2022-08-03T21:24:57.687Z,22.49
2022-08-03T21:29:57.755Z,22.41
2022-08-03T21:34:57.518Z,22.12
2022-08-03T21:39:59.800Z,22.12
2022-08-03T21:44:57.435Z,22.19
2022-08-03T21:50:07.264Z,22.12
2022-08-03T21:54:58.277Z,21.64
2022-08-03T21:59:57.223Z,21.69
2022-08-03T22:04:57.528Z,21.69
2022-08-03T22:09:57.117Z,21.51
2022-08-03T22:15:01.144Z,21.59
2022-08-03T22:19:59.884Z,21.32
2022-08-03T22:24:56.989Z,21.11
2022-08-03T22:29:56.799Z,21.17
2022-08-03T22:34:56.920Z,21.13
2022-08-03T22:50:34.121Z,20.90
2022-08-03T22:55:32.942Z,20.76
2022-08-03T23:00:32.846Z,20.62
2022-08-03T23:06:01.866Z,20.64
2022-08-03T23:10:44.849Z,20.66
2022-08-03T23:15:40.368Z,20.64
2022-08-03T23:20:32.505Z,20.43
2022-08-03T23:25:32.454Z,20.51
2022-08-03T23:30:32.382Z,20.34
2022-08-03T23:36:29.665Z,20.27
2022-08-03T23:40:36.272Z,20.21
